sensor_id;sensor_type;location;lat;lon;timestamp;pressure;altitude;pressure_sealevel;temperature;humidity
39769;BME280;38939;47.824;14.642;2023-04-07T00:00:02;97013.84;;;2.30;63.77
39769;BME280;38939;47.824;14.642;2023-04-07T00:01:06;97005.59;;;2.26;63.39
39769;BME280;38939;47.824;14.642;2023-04-07T00:02:08;97005.47;;;2.28;62.87
39769;BME280;38939;47.824;14.642;2023-04-07T00:03:10;97013.84;;;2.30;62.41
39769;BME280;38939;47.824;14.642;2023-04-07T00:04:13;97006.13;;;2.30;63.38
39769;BME280;38939;47.824;14.642;2023-04-07T00:05:15;97008.84;;;2.28;62.60
39769;BME280;38939;47.824;14.642;2023-04-07T00:06:17;97001.28;;;2.27;63.15
39769;BME280;38939;47.824;14.642;2023-04-07T00:07:19;97005.91;;;2.23;63.23
39769;BME280;38939;47.824;14.642;2023-04-07T00:08:20;97009.94;;;2.26;62.49
39769;BME280;38939;47.824;14.642;2023-04-07T00:09:22;97009.66;;;2.29;62.96
39769;BME280;38939;47.824;14.642;2023-04-07T00:10:24;97008.56;;;2.31;62.49
39769;BME280;38939;47.824;14.642;2023-04-07T00:11:26;97014.22;;;2.35;61.53
39769;BME280;38939;47.824;14.642;2023-04-07T00:12:28;97001.34;;;2.35;61.42
39769;BME280;38939;47.824;14.642;2023-04-07T00:13:30;97002.47;;;2.32;62.34
39769;BME280;38939;47.824;14.642;2023-04-07T00:14:32;97002.88;;;2.28;62.57
39769;BME280;38939;47.824;14.642;2023-04-07T00:15:33;97006.50;;;2.17;62.83
39769;BME280;38939;47.824;14.642;2023-04-07T00:16:35;97003.69;;;2.10;63.29
39769;BME280;38939;47.824;14.642;2023-04-07T00:17:37;97001.63;;;2.14;62.83
39769;BME280;38939;47.824;14.642;2023-04-07T00:18:39;97004.06;;;2.15;63.08
39769;BME280;38939;47.824;14.642;2023-04-07T00:19:41;96998.38;;;2.12;64.54
39769;BME280;38939;47.824;14.642;2023-04-07T00:20:44;97004.13;;;2.06;64.78
39769;BME280;38939;47.824;14.642;2023-04-07T00:21:45;97005.88;;;2.05;64.81
39769;BME280;38939;47.824;14.642;2023-04-07T00:22:47;96998.75;;;1.99;65.17
39769;BME280;38939;47.824;14.642;2023-04-07T00:23:49;97002.28;;;1.98;65.12
39769;BME280;38939;47.824;14.642;2023-04-07T00:24:51;97008.47;;;2.05;64.36
39769;BME280;38939;47.824;14.642;2023-04-07T00:25:53;97002.50;;;2.05;63.91
39769;BME280;38939;47.824;14.642;2023-04-07T00:26:55;97008.19;;;2.08;63.98
39769;BME280;38939;47.824;14.642;2023-04-07T00:27:57;97002.72;;;2.11;63.08
39769;BME280;38939;47.824;14.642;2023-04-07T00:28:59;97004.06;;;2.15;62.80
39769;BME280;38939;47.824;14.642;2023-04-07T00:30:01;97003.13;;;2.16;62.28
39769;BME280;38939;47.824;14.642;2023-04-07T00:31:03;96999.34;;;2.11;62.76
39769;BME280;38939;47.824;14.642;2023-04-07T00:32:05;96999.13;;;2.04;63.04
39769;BME280;38939;47.824;14.642;2023-04-07T00:33:07;96994.94;;;2.03;63.36
39769;BME280;38939;47.824;14.642;2023-04-07T00:34:10;96998.84;;;2.07;62.68
39769;BME280;38939;47.824;14.642;2023-04-07T00:35:15;97003.69;;;2.10;64.17
39769;BME280;38939;47.824;14.642;2023-04-07T00:36:17;96989.66;;;2.05;64.50
39769;BME280;38939;47.824;14.642;2023-04-07T00:37:18;97001.19;;;2.00;64.09
39769;BME280;38939;47.824;14.642;2023-04-07T00:38:20;96991.56;;;2.03;64.46
39769;BME280;38939;47.824;14.642;2023-04-07T00:39:22;97007.00;;;2.03;63.90
39769;BME280;38939;47.824;14.642;2023-04-07T00:40:24;97006.59;;;1.97;64.39
39769;BME280;38939;47.824;14.642;2023-04-07T00:41:26;96992.81;;;1.98;63.42
39769;BME280;38939;47.824;14.642;2023-04-07T00:42:28;96992.34;;;2.03;63.91
39769;BME280;38939;47.824;14.642;2023-04-07T00:43:30;96996.25;;;2.07;62.72
39769;BME280;38939;47.824;14.642;2023-04-07T00:44:32;96996.84;;;2.01;63.57
39769;BME280;38939;47.824;14.642;2023-04-07T00:45:35;96998.22;;;1.95;64.11
39769;BME280;38939;47.824;14.642;2023-04-07T00:46:37;96999.34;;;1.93;63.47
39769;BME280;38939;47.824;14.642;2023-04-07T00:47:39;97002.56;;;1.95;62.83
39769;BME280;38939;47.824;14.642;2023-04-07T00:48:41;96996.97;;;1.99;63.51
39769;BME280;38939;47.824;14.642;2023-04-07T00:49:42;96987.22;;;2.03;62.63
39769;BME280;38939;47.824;14.642;2023-04-07T00:50:44;96987.88;;;2.05;63.12
39769;BME280;38939;47.824;14.642;2023-04-07T00:51:46;96995.25;;;2.00;63.81
39769;BME280;38939;47.824;14.642;2023-04-07T00:52:48;96985.22;;;1.97;63.31
39769;BME280;38939;47.824;14.642;2023-04-07T00:53:50;96989.13;;;2.01;62.84
39769;BME280;38939;47.824;14.642;2023-04-07T00:54:52;96991.16;;;1.97;63.01
39769;BME280;38939;47.824;14.642;2023-04-07T00:55:54;96989.47;;;1.88;64.10
39769;BME280;38939;47.824;14.642;2023-04-07T00:56:56;96986.91;;;1.88;64.40
39769;BME280;38939;47.824;14.642;2023-04-07T00:57:58;96984.63;;;1.85;64.83
39769;BME280;38939;47.824;14.642;2023-04-07T00:59:00;96981.81;;;1.78;65.48
39769;BME280;38939;47.824;14.642;2023-04-07T01:00:04;96983.72;;;1.76;65.15
39769;BME280;38939;47.824;14.642;2023-04-07T01:01:08;96981.50;;;1.82;64.54
39769;BME280;38939;47.824;14.642;2023-04-07T01:03:55;96978.00;;;1.83;64.48
39769;BME280;38939;47.824;14.642;2023-04-07T01:06:04;96978.66;;;1.85;65.22
39769;BME280;38939;47.824;14.642;2023-04-07T01:07:13;96981.03;;;1.78;65.54
39769;BME280;38939;47.824;14.642;2023-04-07T01:09:36;96978.81;;;1.83;64.55
39769;BME280;38939;47.824;14.642;2023-04-07T01:14:06;96977.91;;;1.74;66.14
39769;BME280;38939;47.824;14.642;2023-04-07T01:15:11;96972.91;;;1.73;65.66
39769;BME280;38939;47.824;14.642;2023-04-07T01:16:18;96972.78;;;1.74;65.84
39769;BME280;38939;47.824;14.642;2023-04-07T01:17:22;96966.84;;;1.74;65.85
39769;BME280;38939;47.824;14.642;2023-04-07T01:18:28;96974.91;;;1.79;65.03
39769;BME280;38939;47.824;14.642;2023-04-07T01:21:08;96969.97;;;1.86;65.21
39769;BME280;38939;47.824;14.642;2023-04-07T01:22:13;96959.69;;;1.86;65.06
39769;BME280;38939;47.824;14.642;2023-04-07T01:23:24;96965.22;;;1.91;64.05
39769;BME280;38939;47.824;14.642;2023-04-07T01:24:45;96965.09;;;1.92;63.70
39769;BME280;38939;47.824;14.642;2023-04-07T01:26:28;96961.41;;;1.95;64.16
39769;BME280;38939;47.824;14.642;2023-04-07T01:27:57;96965.50;;;1.88;64.74
39769;BME280;38939;47.824;14.642;2023-04-07T01:29:36;96966.38;;;1.78;64.94
39769;BME280;38939;47.824;14.642;2023-04-07T01:30:12;96959.63;;;1.77;64.70
39769;BME280;38939;47.824;14.642;2023-04-07T01:31:16;96959.34;;;1.80;64.46
39769;BME280;38939;47.824;14.642;2023-04-07T01:32:18;96958.53;;;1.80;65.31
39769;BME280;38939;47.824;14.642;2023-04-07T01:33:24;96963.72;;;1.70;65.28
39769;BME280;38939;47.824;14.642;2023-04-07T01:34:30;96965.50;;;1.70;65.59
39769;BME280;38939;47.824;14.642;2023-04-07T01:35:33;96964.41;;;1.72;64.66
39769;BME280;38939;47.824;14.642;2023-04-07T01:36:36;96958.81;;;1.77;64.68
39769;BME280;38939;47.824;14.642;2023-04-07T01:37:38;96957.56;;;1.81;63.97
39769;BME280;38939;47.824;14.642;2023-04-07T01:38:41;96954.72;;;1.84;64.44
39769;BME280;38939;47.824;14.642;2023-04-07T01:39:43;96960.34;;;1.88;64.33
39769;BME280;38939;47.824;14.642;2023-04-07T01:40:45;96962.44;;;1.84;64.12
39769;BME280;38939;47.824;14.642;2023-04-07T01:41:48;96959.34;;;1.80;64.47
39769;BME280;38939;47.824;14.642;2023-04-07T01:42:53;96960.94;;;1.82;63.97
39769;BME280;38939;47.824;14.642;2023-04-07T01:43:56;96960.81;;;1.83;64.40
39769;BME280;38939;47.824;14.642;2023-04-07T01:44:58;96963.22;;;1.85;63.65
39769;BME280;38939;47.824;14.642;2023-04-07T01:46:01;96957.94;;;1.86;64.23
39769;BME280;38939;47.824;14.642;2023-04-07T01:47:04;96959.69;;;1.86;63.67
39769;BME280;38939;47.824;14.642;2023-04-07T01:48:06;96958.09;;;1.85;63.96
39769;BME280;38939;47.824;14.642;2023-04-07T01:49:09;96959.78;;;1.76;64.85
39769;BME280;38939;47.824;14.642;2023-04-07T01:50:12;96965.84;;;1.75;64.16
39769;BME280;38939;47.824;14.642;2023-04-07T01:51:14;96957.91;;;1.68;65.91
39769;BME280;38939;47.824;14.642;2023-04-07T01:52:19;96961.81;;;1.72;64.57
39769;BME280;38939;47.824;14.642;2023-04-07T01:53:22;96961.38;;;1.77;65.04
39769;BME280;38939;47.824;14.642;2023-04-07T01:54:24;96958.59;;;1.70;65.51
39769;BME280;38939;47.824;14.642;2023-04-07T01:55:26;96958.63;;;1.60;66.06
39769;BME280;38939;47.824;14.642;2023-04-07T01:56:29;96956.88;;;1.61;65.46
39769;BME280;38939;47.824;14.642;2023-04-07T01:57:31;96955.63;;;1.65;65.71
39769;BME280;38939;47.824;14.642;2023-04-07T01:58:33;96960.09;;;1.63;66.74
39769;BME280;38939;47.824;14.642;2023-04-07T01:59:34;96951.88;;;1.59;66.32
39769;BME280;38939;47.824;14.642;2023-04-07T02:00:36;96959.31;;;1.63;65.25
39769;BME280;38939;47.824;14.642;2023-04-07T02:01:38;96951.31;;;1.66;65.23
39769;BME280;38939;47.824;14.642;2023-04-07T02:02:43;96950.22;;;1.68;64.63
39769;BME280;38939;47.824;14.642;2023-04-07T02:03:48;96953.72;;;1.67;65.48
39769;BME280;38939;47.824;14.642;2023-04-07T02:04:56;96952.97;;;1.57;66.69
39769;BME280;38939;47.824;14.642;2023-04-07T02:05:59;96952.34;;;1.45;66.77
39769;BME280;38939;47.824;14.642;2023-04-07T02:07:07;96949.28;;;1.42;66.83
39769;BME280;38939;47.824;14.642;2023-04-07T02:08:09;96949.53;;;1.38;66.64
39769;BME280;38939;47.824;14.642;2023-04-07T02:09:12;96947.66;;;1.40;66.41
39769;BME280;38939;47.824;14.642;2023-04-07T02:10:16;96939.00;;;1.42;67.78
39769;BME280;38939;47.824;14.642;2023-04-07T02:11:20;96941.56;;;1.42;67.59
39769;BME280;38939;47.824;14.642;2023-04-07T02:12:24;96940.59;;;1.43;67.55
39769;BME280;38939;47.824;14.642;2023-04-07T02:13:27;96937.34;;;1.40;66.84
39769;BME280;38939;47.824;14.642;2023-04-07T02:14:30;96938.69;;;1.45;66.96
39769;BME280;38939;47.824;14.642;2023-04-07T02:15:32;96945.31;;;1.47;66.90
39769;BME280;38939;47.824;14.642;2023-04-07T02:16:35;96944.59;;;1.55;66.21
39769;BME280;38939;47.824;14.642;2023-04-07T02:17:41;96950.78;;;1.62;65.78
39769;BME280;38939;47.824;14.642;2023-04-07T02:18:44;96944.00;;;1.61;65.87
39769;BME280;38939;47.824;14.642;2023-04-07T02:19:47;96943.34;;;1.59;65.31
39769;BME280;38939;47.824;14.642;2023-04-07T02:20:49;96938.34;;;1.57;66.01
39769;BME280;38939;47.824;14.642;2023-04-07T02:21:52;96930.53;;;1.49;67.10
39769;BME280;38939;47.824;14.642;2023-04-07T02:22:55;96941.41;;;1.43;67.35
39769;BME280;38939;47.824;14.642;2023-04-07T02:23:59;96932.75;;;1.44;67.26
39769;BME280;38939;47.824;14.642;2023-04-07T02:25:01;96927.16;;;1.49;66.83
39769;BME280;38939;47.824;14.642;2023-04-07T02:26:02;96938.66;;;1.54;66.63
39769;BME280;38939;47.824;14.642;2023-04-07T02:27:04;96938.34;;;1.57;66.87
39769;BME280;38939;47.824;14.642;2023-04-07T02:28:06;96935.63;;;1.59;66.11
39769;BME280;38939;47.824;14.642;2023-04-07T02:29:08;96933.72;;;1.61;66.51
39769;BME280;38939;47.824;14.642;2023-04-07T02:30:10;96930.22;;;1.62;67.16
39769;BME280;38939;47.824;14.642;2023-04-07T02:31:12;96926.31;;;1.58;67.77
39769;BME280;38939;47.824;14.642;2023-04-07T02:32:14;96926.22;;;1.50;67.18
39769;BME280;38939;47.824;14.642;2023-04-07T02:33:16;96936.50;;;1.50;67.02
39769;BME280;38939;47.824;14.642;2023-04-07T02:34:17;96931.88;;;1.53;66.91
39769;BME280;38939;47.824;14.642;2023-04-07T02:35:19;96930.50;;;1.59;66.43
39769;BME280;38939;47.824;14.642;2023-04-07T02:36:21;96934.53;;;1.62;66.82
39769;BME280;38939;47.824;14.642;2023-04-07T02:37:23;96923.22;;;1.54;67.70
39769;BME280;38939;47.824;14.642;2023-04-07T02:38:25;96931.59;;;1.56;66.40
39769;BME280;38939;47.824;14.642;2023-04-07T02:39:27;96933.72;;;1.61;66.07
39769;BME280;38939;47.824;14.642;2023-04-07T02:40:28;96930.75;;;1.66;65.79
39769;BME280;38939;47.824;14.642;2023-04-07T02:41:30;96928.72;;;1.59;66.55
39769;BME280;38939;47.824;14.642;2023-04-07T02:42:32;96929.28;;;1.53;67.14
39769;BME280;38939;47.824;14.642;2023-04-07T02:43:34;96920.78;;;1.53;66.60
39769;BME280;38939;47.824;14.642;2023-04-07T02:44:36;96919.69;;;1.55;66.72
39769;BME280;38939;47.824;14.642;2023-04-07T02:45:38;96918.13;;;1.45;67.36
39769;BME280;38939;47.824;14.642;2023-04-07T02:46:40;96924.81;;;1.37;67.06
39769;BME280;38939;47.824;14.642;2023-04-07T02:47:42;96917.59;;;1.41;67.36
39769;BME280;38939;47.824;14.642;2023-04-07T02:48:44;96921.94;;;1.40;67.85
39769;BME280;38939;47.824;14.642;2023-04-07T02:49:46;96924.41;;;1.32;68.03
39769;BME280;38939;47.824;14.642;2023-04-07T02:50:47;96922.81;;;1.31;68.10
39769;BME280;38939;47.824;14.642;2023-04-07T02:51:49;96922.50;;;1.34;67.77
39769;BME280;38939;47.824;14.642;2023-04-07T02:52:51;96915.47;;;1.36;66.96
39769;BME280;38939;47.824;14.642;2023-04-07T02:53:53;96917.91;;;1.38;67.16
39769;BME280;38939;47.824;14.642;2023-04-07T02:54:55;96917.38;;;1.34;68.55
39769;BME280;38939;47.824;14.642;2023-04-07T02:55:59;96909.56;;;1.26;68.70
39769;BME280;38939;47.824;14.642;2023-04-07T02:57:01;96917.94;;;1.28;68.66
39769;BME280;38939;47.824;14.642;2023-04-07T02:58:03;96914.41;;;1.29;67.87
39769;BME280;38939;47.824;14.642;2023-04-07T02:59:04;96918.19;;;1.35;67.47
39769;BME280;38939;47.824;14.642;2023-04-07T03:00:06;96917.91;;;1.38;67.50
39769;BME280;38939;47.824;14.642;2023-04-07T03:01:08;96914.22;;;1.40;67.06
39769;BME280;38939;47.824;14.642;2023-04-07T03:02:11;96919.38;;;1.40;67.99
39769;BME280;38939;47.824;14.642;2023-04-07T03:03:13;96912.75;;;1.38;67.68
39769;BME280;38939;47.824;14.642;2023-04-07T03:04:15;96916.84;;;1.31;68.70
39769;BME280;38939;47.824;14.642;2023-04-07T03:05:17;96910.47;;;1.35;67.98
39769;BME280;38939;47.824;14.642;2023-04-07T03:06:19;96908.56;;;1.37;68.56
39769;BME280;38939;47.824;14.642;2023-04-07T03:07:21;96910.09;;;1.30;68.46
39769;BME280;38939;47.824;14.642;2023-04-07T03:08:22;96909.56;;;1.26;69.10
39769;BME280;38939;47.824;14.642;2023-04-07T03:09:24;96912.53;;;1.31;68.62
39769;BME280;38939;47.824;14.642;2023-04-07T03:10:27;96911.97;;;1.37;68.38
39769;BME280;38939;47.824;14.642;2023-04-07T03:11:28;96908.28;;;1.40;67.40
39769;BME280;38939;47.824;14.642;2023-04-07T03:12:30;96917.09;;;1.37;68.22
39769;BME280;38939;47.824;14.642;2023-04-07T03:13:32;96897.47;;;1.36;68.14
39769;BME280;38939;47.824;14.642;2023-04-07T03:14:34;96911.28;;;1.35;68.62
39769;BME280;38939;47.824;14.642;2023-04-07T03:15:36;96912.53;;;1.31;68.78
39769;BME280;38939;47.824;14.642;2023-04-07T03:16:38;96911.47;;;1.24;68.57
39769;BME280;38939;47.824;14.642;2023-04-07T03:17:40;96909.44;;;1.28;68.42
39769;BME280;38939;47.824;14.642;2023-04-07T03:18:42;96904.66;;;1.33;68.17
39769;BME280;38939;47.824;14.642;2023-04-07T03:19:44;96904.25;;;1.37;68.62
39769;BME280;38939;47.824;14.642;2023-04-07T03:20:47;96911.97;;;1.37;68.96
39769;BME280;38939;47.824;14.642;2023-04-07T03:21:49;96905.84;;;1.38;68.36
39769;BME280;38939;47.824;14.642;2023-04-07T03:22:51;96903.72;;;1.34;68.71
39769;BME280;38939;47.824;14.642;2023-04-07T03:23:53;96912.53;;;1.31;68.71
39769;BME280;38939;47.824;14.642;2023-04-07T03:24:56;96902.75;;;1.35;68.95
39769;BME280;38939;47.824;14.642;2023-04-07T03:25:58;96908.28;;;1.40;68.54
39769;BME280;38939;47.824;14.642;2023-04-07T03:26:59;96906.38;;;1.42;67.67
39769;BME280;38939;47.824;14.642;2023-04-07T03:28:03;96909.31;;;1.47;67.12
39769;BME280;38939;47.824;14.642;2023-04-07T03:29:04;96901.19;;;1.52;67.05
39769;BME280;38939;47.824;14.642;2023-04-07T03:30:07;96905.09;;;1.56;67.03
39769;BME280;38939;47.824;14.642;2023-04-07T03:31:09;96904.13;;;1.57;66.60
39769;BME280;38939;47.824;14.642;2023-04-07T03:32:11;96906.69;;;1.57;67.47
39769;BME280;38939;47.824;14.642;2023-04-07T03:33:13;96910.22;;;1.56;67.08
39769;BME280;38939;47.824;14.642;2023-04-07T03:34:15;96908.59;;;1.55;67.00
39769;BME280;38939;47.824;14.642;2023-04-07T03:35:16;96905.88;;;1.56;66.75
39769;BME280;38939;47.824;14.642;2023-04-07T03:36:18;96905.34;;;1.53;67.49
39769;BME280;38939;47.824;14.642;2023-04-07T03:37:20;96909.31;;;1.47;66.99
39769;BME280;38939;47.824;14.642;2023-04-07T03:38:22;96906.25;;;1.44;67.00
39769;BME280;38939;47.824;14.642;2023-04-07T03:39:24;96903.00;;;1.42;67.82
39769;BME280;38939;47.824;14.642;2023-04-07T03:40:26;96905.84;;;1.38;67.12
39769;BME280;38939;47.824;14.642;2023-04-07T03:41:28;96900.72;;;1.38;68.04
39769;BME280;38939;47.824;14.642;2023-04-07T03:42:30;96902.75;;;1.35;67.72
39769;BME280;38939;47.824;14.642;2023-04-07T03:43:32;96905.03;;;1.38;67.57
39769;BME280;38939;47.824;14.642;2023-04-07T03:44:33;96902.16;;;1.41;66.64
39769;BME280;38939;47.824;14.642;2023-04-07T03:45:35;96907.19;;;1.43;66.92
39769;BME280;38939;47.824;14.642;2023-04-07T03:46:37;96900.25;;;1.43;66.72
39769;BME280;38939;47.824;14.642;2023-04-07T03:47:39;96905.13;;;1.46;66.33
39769;BME280;38939;47.824;14.642;2023-04-07T03:48:41;96904.59;;;1.43;67.58
39769;BME280;38939;47.824;14.642;2023-04-07T03:49:43;96896.66;;;1.36;67.62
39769;BME280;38939;47.824;14.642;2023-04-07T03:50:45;96904.91;;;1.39;67.02
39769;BME280;38939;47.824;14.642;2023-04-07T03:51:47;96902.16;;;1.41;67.28
39769;BME280;38939;47.824;14.642;2023-04-07T03:52:49;96902.34;;;1.39;67.61
39769;BME280;38939;47.824;14.642;2023-04-07T03:53:50;96900.19;;;1.35;67.48
39769;BME280;38939;47.824;14.642;2023-04-07T03:54:53;96899.00;;;1.29;68.25
39769;BME280;38939;47.824;14.642;2023-04-07T03:55:55;96902.13;;;1.23;68.75
39769;BME280;38939;47.824;14.642;2023-04-07T03:56:56;96900.13;;;1.17;68.67
39769;BME280;38939;47.824;14.642;2023-04-07T03:57:58;96899.47;;;1.15;68.25
39769;BME280;38939;47.824;14.642;2023-04-07T03:59:00;96901.75;;;1.18;67.58
39769;BME280;38939;47.824;14.642;2023-04-07T04:00:03;96896.50;;;1.19;67.31
39769;BME280;38939;47.824;14.642;2023-04-07T04:01:05;96904.69;;;1.23;67.35
39769;BME280;38939;47.824;14.642;2023-04-07T04:02:07;96899.97;;;1.28;67.88
39769;BME280;38939;47.824;14.642;2023-04-07T04:03:09;96891.13;;;1.31;67.67
39769;BME280;38939;47.824;14.642;2023-04-07T04:04:11;96895.22;;;1.33;67.78
39769;BME280;38939;47.824;14.642;2023-04-07T04:05:14;96892.38;;;1.27;68.13
39769;BME280;38939;47.824;14.642;2023-04-07T04:06:15;96898.50;;;1.26;67.80
39769;BME280;38939;47.824;14.642;2023-04-07T04:07:18;96899.00;;;1.29;67.50
39769;BME280;38939;47.824;14.642;2023-04-07T04:08:19;96898.03;;;1.30;67.37
39769;BME280;38939;47.824;14.642;2023-04-07T04:09:21;96891.28;;;1.29;67.63
39769;BME280;38939;47.824;14.642;2023-04-07T04:10:23;96892.78;;;1.32;67.76
39769;BME280;38939;47.824;14.642;2023-04-07T04:11:25;96888.16;;;1.35;67.65
39769;BME280;38939;47.824;14.642;2023-04-07T04:12:27;96887.84;;;1.38;67.40
39769;BME280;38939;47.824;14.642;2023-04-07T04:13:29;96891.75;;;1.43;67.13
39769;BME280;38939;47.824;14.642;2023-04-07T04:14:31;96891.47;;;1.46;67.02
39769;BME280;38939;47.824;14.642;2023-04-07T04:15:33;96898.09;;;1.48;66.70
39769;BME280;38939;47.824;14.642;2023-04-07T04:16:35;96894.41;;;1.51;66.07
39769;BME280;38939;47.824;14.642;2023-04-07T04:17:37;96893.53;;;1.42;67.38
39769;BME280;38939;47.824;14.642;2023-04-07T04:18:39;96890.34;;;1.30;67.75
39769;BME280;38939;47.824;14.642;2023-04-07T04:19:41;96890.34;;;1.30;67.42
39769;BME280;38939;47.824;14.642;2023-04-07T04:20:42;96896.41;;;1.29;67.84
39769;BME280;38939;47.824;14.642;2023-04-07T04:21:44;96895.75;;;1.27;67.69
39769;BME280;38939;47.824;14.642;2023-04-07T04:22:47;96888.56;;;1.31;67.37
39769;BME280;38939;47.824;14.642;2023-04-07T04:23:48;96885.72;;;1.34;67.31
39769;BME280;38939;47.824;14.642;2023-04-07T04:24:51;96890.72;;;1.35;68.00
39769;BME280;38939;47.824;14.642;2023-04-07T04:25:52;96891.41;;;1.37;67.20
39769;BME280;38939;47.824;14.642;2023-04-07T04:26:54;96892.06;;;1.39;67.44
39769;BME280;38939;47.824;14.642;2023-04-07T04:27:57;96885.16;;;1.40;66.82
39769;BME280;38939;47.824;14.642;2023-04-07T04:28:59;96891.88;;;1.41;67.71
39769;BME280;38939;47.824;14.642;2023-04-07T04:30:00;96886.84;;;1.31;67.88
39769;BME280;38939;47.824;14.642;2023-04-07T04:31:02;96888.03;;;1.27;67.71
39769;BME280;38939;47.824;14.642;2023-04-07T04:32:04;96889.84;;;1.17;68.89
39769;BME280;38939;47.824;14.642;2023-04-07T04:33:06;96888.25;;;1.16;68.10
39769;BME280;38939;47.824;14.642;2023-04-07T04:34:08;96884.44;;;1.20;68.68
39769;BME280;38939;47.824;14.642;2023-04-07T04:35:10;96884.78;;;1.07;69.50
39769;BME280;38939;47.824;14.642;2023-04-07T04:36:12;96876.44;;;0.95;70.14
39769;BME280;38939;47.824;14.642;2023-04-07T04:37:14;96883.19;;;0.96;69.30
39769;BME280;38939;47.824;14.642;2023-04-07T04:38:15;96888.06;;;0.99;69.73
39769;BME280;38939;47.824;14.642;2023-04-07T04:39:17;96892.91;;;1.03;68.81
39769;BME280;38939;47.824;14.642;2023-04-07T04:40:19;96887.75;;;1.03;69.52
39769;BME280;38939;47.824;14.642;2023-04-07T04:41:21;96887.50;;;1.06;68.86
39769;BME280;38939;47.824;14.642;2023-04-07T04:42:23;96879.47;;;1.09;68.72
39769;BME280;38939;47.824;14.642;2023-04-07T04:43:26;96889.75;;;1.09;69.02
39769;BME280;38939;47.824;14.642;2023-04-07T04:44:29;96885.28;;;1.11;68.86
39769;BME280;38939;47.824;14.642;2023-04-07T04:45:31;96890.16;;;1.14;69.74
39769;BME280;38939;47.824;14.642;2023-04-07T04:46:33;96887.59;;;1.14;69.21
39769;BME280;38939;47.824;14.642;2023-04-07T04:47:35;96892.19;;;1.10;69.36
39769;BME280;38939;47.824;14.642;2023-04-07T04:48:39;96886.25;;;1.10;69.23
39769;BME280;38939;47.824;14.642;2023-04-07T04:49:41;96880.97;;;1.11;68.85
39769;BME280;38939;47.824;14.642;2023-04-07T04:50:43;96884.47;;;1.10;68.86
39769;BME280;38939;47.824;14.642;2023-04-07T04:51:44;96885.28;;;1.11;68.58
39769;BME280;38939;47.824;14.642;2023-04-07T04:52:46;96892.34;;;1.09;69.38
39769;BME280;38939;47.824;14.642;2023-04-07T04:53:48;96891.53;;;1.08;69.57
39769;BME280;38939;47.824;14.642;2023-04-07T04:54:50;96886.91;;;1.12;69.21
39769;BME280;38939;47.824;14.642;2023-04-07T04:55:51;96890.16;;;1.14;69.20
39769;BME280;38939;47.824;14.642;2023-04-07T04:56:53;96890.28;;;1.12;69.33
39769;BME280;38939;47.824;14.642;2023-04-07T04:57:57;96891.00;;;1.05;69.90
39769;BME280;38939;47.824;14.642;2023-04-07T04:58:59;96902.25;;;1.04;69.88
39769;BME280;38939;47.824;14.642;2023-04-07T05:00:01;96891.00;;;1.05;69.45
39769;BME280;38939;47.824;14.642;2023-04-07T05:01:05;96895.06;;;1.07;69.19
39769;BME280;38939;47.824;14.642;2023-04-07T05:02:06;96888.53;;;1.13;69.29
39769;BME280;38939;47.824;14.642;2023-04-07T05:03:09;96893.28;;;1.08;69.44
39769;BME280;38939;47.824;14.642;2023-04-07T05:04:11;96891.84;;;1.05;69.78
39769;BME280;38939;47.824;14.642;2023-04-07T05:05:13;96891.00;;;1.05;70.16
39769;BME280;38939;47.824;14.642;2023-04-07T05:06:16;96887.75;;;1.03;69.56
39769;BME280;38939;47.824;14.642;2023-04-07T05:07:17;96892.34;;;1.09;69.66
39769;BME280;38939;47.824;14.642;2023-04-07T05:08:19;96890.16;;;1.14;69.47
39769;BME280;38939;47.824;14.642;2023-04-07T05:09:21;96892.06;;;1.12;68.84
39769;BME280;38939;47.824;14.642;2023-04-07T05:10:23;96895.00;;;1.17;69.32
39769;BME280;38939;47.824;14.642;2023-04-07T05:11:25;96888.63;;;1.21;68.71
39769;BME280;38939;47.824;14.642;2023-04-07T05:12:27;96890.91;;;1.24;68.94
39769;BME280;38939;47.824;14.642;2023-04-07T05:13:28;96889.00;;;1.26;68.33
39769;BME280;38939;47.824;14.642;2023-04-07T05:14:31;96899.00;;;1.29;68.60
39769;BME280;38939;47.824;14.642;2023-04-07T05:15:33;96885.06;;;1.32;68.55
39769;BME280;38939;47.824;14.642;2023-04-07T05:16:35;96889.69;;;1.28;68.12
39769;BME280;38939;47.824;14.642;2023-04-07T05:17:37;96892.50;;;1.25;68.50
39769;BME280;38939;47.824;14.642;2023-04-07T05:18:39;96895.09;;;1.25;68.16
39769;BME280;38939;47.824;14.642;2023-04-07T05:19:42;96897.38;;;1.28;68.60
39769;BME280;38939;47.824;14.642;2023-04-07T05:20:44;96891.84;;;1.23;69.03
39769;BME280;38939;47.824;14.642;2023-04-07T05:21:45;96891.19;;;1.21;69.05
39769;BME280;38939;47.824;14.642;2023-04-07T05:22:47;96893.75;;;1.21;69.18
39769;BME280;38939;47.824;14.642;2023-04-07T05:23:49;96897.00;;;1.23;69.55
39769;BME280;38939;47.824;14.642;2023-04-07T05:24:51;96895.09;;;1.25;69.34
39769;BME280;38939;47.824;14.642;2023-04-07T05:25:53;96896.41;;;1.29;68.33
39769;BME280;38939;47.824;14.642;2023-04-07T05:26:55;96894.53;;;1.31;69.22
39769;BME280;38939;47.824;14.642;2023-04-07T05:27:57;96891.97;;;1.31;69.25
39769;BME280;38939;47.824;14.642;2023-04-07T05:29:00;96887.38;;;1.25;69.45
39769;BME280;38939;47.824;14.642;2023-04-07T05:30:02;96889.59;;;1.20;69.89
39769;BME280;38939;47.824;14.642;2023-04-07T05:31:04;96886.91;;;1.12;70.48
39769;BME280;38939;47.824;14.642;2023-04-07T05:32:08;96886.38;;;1.08;69.86
39769;BME280;38939;47.824;14.642;2023-04-07T05:33:10;96890.16;;;1.14;69.60
39769;BME280;38939;47.824;14.642;2023-04-07T05:34:11;96883.91;;;1.16;69.96
39769;BME280;38939;47.824;14.642;2023-04-07T05:35:13;96884.44;;;1.20;69.49
39769;BME280;38939;47.824;14.642;2023-04-07T05:36:15;96882.91;;;1.27;69.66
39769;BME280;38939;47.824;14.642;2023-04-07T05:37:17;96881.69;;;1.31;69.28
39769;BME280;38939;47.824;14.642;2023-04-07T05:38:19;96878.72;;;1.26;70.31
39769;BME280;38939;47.824;14.642;2023-04-07T05:39:21;96875.84;;;1.29;70.45
39769;BME280;38939;47.824;14.642;2023-04-07T05:40:22;96873.97;;;1.31;70.24